sensor_id;sensor_type;location;lat;lon;timestamp;P1;durP1;ratioP1;P2;durP2;ratioP2
41689;SDS011;27372;42.658;23.256;2024-02-28T06:53:06;40.90;;;21.02;;
41689;SDS011;27372;42.658;23.256;2024-02-28T06:55:47;37.22;;;20.58;;
41689;SDS011;27372;42.658;23.256;2024-02-28T07:02:32;36.15;;;19.23;;
41689;SDS011;27372;42.658;23.256;2024-02-28T07:04:58;35.30;;;19.58;;
41689;SDS011;27372;42.658;23.256;2024-02-28T07:07:24;36.30;;;19.50;;
41689;SDS011;27372;42.658;23.256;2024-02-28T07:09:50;40.05;;;20.88;;
41689;SDS011;27372;42.658;23.256;2024-02-28T07:12:15;42.63;;;22.45;;
41689;SDS011;27372;42.658;23.256;2024-02-28T07:14:40;41.38;;;22.88;;
41689;SDS011;27372;42.658;23.256;2024-02-28T07:17:06;39.95;;;21.98;;
41689;SDS011;27372;42.658;23.256;2024-02-28T07:19:32;42.40;;;19.90;;
41689;SDS011;27372;42.658;23.256;2024-02-28T07:21:57;41.00;;;21.00;;
41689;SDS011;27372;42.658;23.256;2024-02-28T07:24:22;39.13;;;20.27;;
41689;SDS011;27372;42.658;23.256;2024-02-28T07:26:48;34.30;;;19.42;;
41689;SDS011;27372;42.658;23.256;2024-02-28T07:29:14;33.92;;;19.83;;
41689;SDS011;27372;42.658;23.256;2024-02-28T07:31:39;32.65;;;19.80;;
41689;SDS011;27372;42.658;23.256;2024-02-28T07:34:05;34.08;;;19.63;;
41689;SDS011;27372;42.658;23.256;2024-02-28T07:36:31;32.90;;;19.80;;
41689;SDS011;27372;42.658;23.256;2024-02-28T07:38:56;40.28;;;20.02;;
41689;SDS011;27372;42.658;23.256;2024-02-28T07:41:22;35.35;;;19.30;;
41689;SDS011;27372;42.658;23.256;2024-02-28T07:43:47;38.38;;;19.88;;
41689;SDS011;27372;42.658;23.256;2024-02-28T07:46:12;35.42;;;19.45;;
41689;SDS011;27372;42.658;23.256;2024-02-28T07:48:38;33.25;;;18.90;;
41689;SDS011;27372;42.658;23.256;2024-02-28T07:51:04;33.10;;;20.00;;
41689;SDS011;27372;42.658;23.256;2024-02-28T07:53:30;37.05;;;21.42;;
41689;SDS011;27372;42.658;23.256;2024-02-28T07:55:56;33.63;;;19.27;;
41689;SDS011;27372;42.658;23.256;2024-02-28T07:58:21;40.95;;;20.08;;
41689;SDS011;27372;42.658;23.256;2024-02-28T08:00:46;44.78;;;21.80;;
41689;SDS011;27372;42.658;23.256;2024-02-28T08:03:12;37.03;;;21.27;;
41689;SDS011;27372;42.658;23.256;2024-02-28T08:05:37;42.00;;;21.52;;
41689;SDS011;27372;42.658;23.256;2024-02-28T08:08:06;36.38;;;21.95;;
41689;SDS011;27372;42.658;23.256;2024-02-28T08:10:31;34.78;;;21.15;;
41689;SDS011;27372;42.658;23.256;2024-02-28T08:12:57;28.70;;;16.83;;
41689;SDS011;27372;42.658;23.256;2024-02-28T08:15:22;26.77;;;16.48;;
41689;SDS011;27372;42.658;23.256;2024-02-28T08:17:48;29.40;;;17.13;;
41689;SDS011;27372;42.658;23.256;2024-02-28T08:20:13;25.45;;;16.17;;
41689;SDS011;27372;42.658;23.256;2024-02-28T08:22:39;28.98;;;15.93;;
41689;SDS011;27372;42.658;23.256;2024-02-28T08:25:05;27.77;;;16.67;;
41689;SDS011;27372;42.658;23.256;2024-02-28T08:27:30;31.60;;;15.77;;
41689;SDS011;27372;42.658;23.256;2024-02-28T08:29:56;31.83;;;16.95;;
41689;SDS011;27372;42.658;23.256;2024-02-28T08:32:21;26.52;;;15.07;;
41689;SDS011;27372;42.658;23.256;2024-02-28T08:34:46;24.85;;;15.13;;
41689;SDS011;27372;42.658;23.256;2024-02-28T08:37:12;28.92;;;15.98;;
41689;SDS011;27372;42.658;23.256;2024-02-28T08:39:38;27.83;;;15.65;;
41689;SDS011;27372;42.658;23.256;2024-02-28T08:42:04;31.70;;;15.43;;
41689;SDS011;27372;42.658;23.256;2024-02-28T08:44:30;28.52;;;14.60;;
41689;SDS011;27372;42.658;23.256;2024-02-28T08:46:55;31.23;;;16.92;;
41689;SDS011;27372;42.658;23.256;2024-02-28T08:49:21;26.25;;;16.30;;
41689;SDS011;27372;42.658;23.256;2024-02-28T08:51:46;29.55;;;16.00;;
41689;SDS011;27372;42.658;23.256;2024-02-28T08:54:12;25.92;;;14.80;;
41689;SDS011;27372;42.658;23.256;2024-02-28T08:56:37;31.17;;;15.45;;
41689;SDS011;27372;42.658;23.256;2024-02-28T08:59:03;28.17;;;15.82;;
41689;SDS011;27372;42.658;23.256;2024-02-28T09:01:28;24.10;;;15.27;;
41689;SDS011;27372;42.658;23.256;2024-02-28T09:03:53;24.52;;;14.95;;
41689;SDS011;27372;42.658;23.256;2024-02-28T09:06:19;27.08;;;15.50;;
41689;SDS011;27372;42.658;23.256;2024-02-28T09:08:44;29.65;;;16.20;;
41689;SDS011;27372;42.658;23.256;2024-02-28T09:11:10;28.83;;;16.42;;
41689;SDS011;27372;42.658;23.256;2024-02-28T09:13:35;35.78;;;16.30;;
41689;SDS011;27372;42.658;23.256;2024-02-28T09:16:01;25.70;;;15.27;;
41689;SDS011;27372;42.658;23.256;2024-02-28T09:18:26;29.88;;;15.77;;
41689;SDS011;27372;42.658;23.256;2024-02-28T09:20:52;24.25;;;15.07;;
41689;SDS011;27372;42.658;23.256;2024-02-28T09:23:18;25.13;;;14.40;;
41689;SDS011;27372;42.658;23.256;2024-02-28T09:25:43;22.30;;;13.75;;
41689;SDS011;27372;42.658;23.256;2024-02-28T09:28:09;24.67;;;13.38;;
41689;SDS011;27372;42.658;23.256;2024-02-28T09:30:37;24.52;;;14.55;;
41689;SDS011;27372;42.658;23.256;2024-02-28T09:33:03;26.48;;;15.02;;
41689;SDS011;27372;42.658;23.256;2024-02-28T09:35:28;89.63;;;18.58;;
41689;SDS011;27372;42.658;23.256;2024-02-28T09:37:54;24.75;;;15.55;;
41689;SDS011;27372;42.658;23.256;2024-02-28T09:40:19;27.80;;;17.35;;
41689;SDS011;27372;42.658;23.256;2024-02-28T09:42:50;27.98;;;15.50;;
41689;SDS011;27372;42.658;23.256;2024-02-28T09:45:18;28.75;;;15.02;;
41689;SDS011;27372;42.658;23.256;2024-02-28T09:47:46;28.70;;;14.67;;
41689;SDS011;27372;42.658;23.256;2024-02-28T09:50:11;24.88;;;13.38;;
41689;SDS011;27372;42.658;23.256;2024-02-28T09:52:38;22.33;;;12.82;;
41689;SDS011;27372;42.658;23.256;2024-02-28T09:55:03;20.02;;;12.63;;
41689;SDS011;27372;42.658;23.256;2024-02-28T09:57:29;23.27;;;13.00;;
41689;SDS011;27372;42.658;23.256;2024-02-28T09:59:57;30.80;;;15.02;;
41689;SDS011;27372;42.658;23.256;2024-02-28T10:02:25;25.33;;;13.77;;
41689;SDS011;27372;42.658;23.256;2024-02-28T10:04:53;26.75;;;14.23;;
41689;SDS011;27372;42.658;23.256;2024-02-28T10:07:21;28.00;;;14.82;;
41689;SDS011;27372;42.658;23.256;2024-02-28T10:09:46;28.88;;;16.08;;
41689;SDS011;27372;42.658;23.256;2024-02-28T10:12:12;26.27;;;16.45;;
41689;SDS011;27372;42.658;23.256;2024-02-28T10:14:37;33.60;;;18.08;;
41689;SDS011;27372;42.658;23.256;2024-02-28T10:17:03;26.65;;;16.23;;
41689;SDS011;27372;42.658;23.256;2024-02-28T10:19:29;27.58;;;15.27;;
41689;SDS011;27372;42.658;23.256;2024-02-28T10:21:55;27.27;;;16.40;;
41689;SDS011;27372;42.658;23.256;2024-02-28T10:24:20;33.97;;;16.42;;
41689;SDS011;27372;42.658;23.256;2024-02-28T10:26:49;30.38;;;16.35;;
41689;SDS011;27372;42.658;23.256;2024-02-28T10:29:23;39.08;;;16.63;;
41689;SDS011;27372;42.658;23.256;2024-02-28T10:31:56;27.75;;;15.50;;
41689;SDS011;27372;42.658;23.256;2024-02-28T10:34:22;31.63;;;15.45;;
41689;SDS011;27372;42.658;23.256;2024-02-28T10:36:48;28.38;;;15.35;;
41689;SDS011;27372;42.658;23.256;2024-02-28T10:39:14;27.80;;;13.65;;
41689;SDS011;27372;42.658;23.256;2024-02-28T10:41:40;21.52;;;13.25;;
41689;SDS011;27372;42.658;23.256;2024-02-28T10:44:07;27.02;;;15.57;;
41689;SDS011;27372;42.658;23.256;2024-02-28T10:46:33;28.20;;;15.00;;
41689;SDS011;27372;42.658;23.256;2024-02-28T10:49:00;29.35;;;15.52;;
41689;SDS011;27372;42.658;23.256;2024-02-28T10:51:26;26.27;;;16.27;;
41689;SDS011;27372;42.658;23.256;2024-02-28T10:54:04;26.88;;;14.35;;
41689;SDS011;27372;42.658;23.256;2024-02-28T10:56:34;25.02;;;14.70;;
41689;SDS011;27372;42.658;23.256;2024-02-28T10:59:00;25.90;;;12.73;;
41689;SDS011;27372;42.658;23.256;2024-02-28T11:01:26;20.70;;;12.88;;
41689;SDS011;27372;42.658;23.256;2024-02-28T11:03:52;24.20;;;13.27;;
41689;SDS011;27372;42.658;23.256;2024-02-28T11:06:19;25.08;;;13.52;;
41689;SDS011;27372;42.658;23.256;2024-02-28T11:08:46;21.35;;;11.70;;
41689;SDS011;27372;42.658;23.256;2024-02-28T11:11:14;22.45;;;12.35;;
41689;SDS011;27372;42.658;23.256;2024-02-28T11:13:50;31.60;;;13.68;;
41689;SDS011;27372;42.658;23.256;2024-02-28T11:16:17;25.30;;;14.50;;
41689;SDS011;27372;42.658;23.256;2024-02-28T11:18:49;22.52;;;12.73;;
41689;SDS011;27372;42.658;23.256;2024-02-28T11:21:15;22.52;;;11.68;;
41689;SDS011;27372;42.658;23.256;2024-02-28T11:23:41;22.30;;;11.38;;
41689;SDS011;27372;42.658;23.256;2024-02-28T11:26:12;20.63;;;11.55;;
41689;SDS011;27372;42.658;23.256;2024-02-28T11:28:38;22.55;;;10.68;;
41689;SDS011;27372;42.658;23.256;2024-02-28T11:31:04;16.77;;;10.50;;
41689;SDS011;27372;42.658;23.256;2024-02-28T11:33:30;20.60;;;11.13;;
41689;SDS011;27372;42.658;23.256;2024-02-28T11:35:58;23.08;;;10.77;;
41689;SDS011;27372;42.658;23.256;2024-02-28T11:40:50;14.85;;;9.43;;
41689;SDS011;27372;42.658;23.256;2024-02-28T11:43:16;15.85;;;9.25;;
41689;SDS011;27372;42.658;23.256;2024-02-28T11:45:42;12.93;;;7.45;;
41689;SDS011;27372;42.658;23.256;2024-02-28T11:48:08;17.23;;;7.78;;
41689;SDS011;27372;42.658;23.256;2024-02-28T11:50:34;15.30;;;7.10;;
41689;SDS011;27372;42.658;23.256;2024-02-28T11:52:59;11.98;;;7.03;;
41689;SDS011;27372;42.658;23.256;2024-02-28T11:55:26;18.88;;;8.07;;
41689;SDS011;27372;42.658;23.256;2024-02-28T11:57:52;21.23;;;8.00;;
41689;SDS011;27372;42.658;23.256;2024-02-28T12:00:17;12.02;;;7.40;;
41689;SDS011;27372;42.658;23.256;2024-02-28T12:02:43;15.50;;;8.40;;
41689;SDS011;27372;42.658;23.256;2024-02-28T12:05:08;20.58;;;8.40;;
41689;SDS011;27372;42.658;23.256;2024-02-28T12:07:34;15.27;;;7.90;;
41689;SDS011;27372;42.658;23.256;2024-02-28T12:10:00;14.05;;;8.10;;
41689;SDS011;27372;42.658;23.256;2024-02-28T12:12:28;12.38;;;6.22;;
41689;SDS011;27372;42.658;23.256;2024-02-28T12:17:24;20.00;;;5.78;;
41689;SDS011;27372;42.658;23.256;2024-02-28T12:19:50;16.70;;;6.30;;
41689;SDS011;27372;42.658;23.256;2024-02-28T12:22:16;13.13;;;5.93;;
41689;SDS011;27372;42.658;23.256;2024-02-28T12:24:41;13.55;;;5.90;;
41689;SDS011;27372;42.658;23.256;2024-02-28T12:27:07;13.00;;;6.07;;
41689;SDS011;27372;42.658;23.256;2024-02-28T12:29:32;25.38;;;5.93;;
41689;SDS011;27372;42.658;23.256;2024-02-28T12:31:58;9.50;;;5.88;;
41689;SDS011;27372;42.658;23.256;2024-02-28T12:34:23;17.67;;;6.90;;
41689;SDS011;27372;42.658;23.256;2024-02-28T12:36:49;17.02;;;6.40;;
41689;SDS011;27372;42.658;23.256;2024-02-28T12:39:14;17.35;;;6.45;;
41689;SDS011;27372;42.658;23.256;2024-02-28T12:41:40;12.63;;;6.10;;
41689;SDS011;27372;42.658;23.256;2024-02-28T12:44:06;17.67;;;5.57;;
41689;SDS011;27372;42.658;23.256;2024-02-28T12:46:33;12.65;;;6.13;;
41689;SDS011;27372;42.658;23.256;2024-02-28T12:48:58;12.55;;;5.30;;
41689;SDS011;27372;42.658;23.256;2024-02-28T12:51:43;10.10;;;5.22;;
41689;SDS011;27372;42.658;23.256;2024-02-28T12:54:10;9.32;;;5.00;;
41689;SDS011;27372;42.658;23.256;2024-02-28T12:56:39;12.13;;;5.30;;
41689;SDS011;27372;42.658;23.256;2024-02-28T12:59:05;11.50;;;5.18;;
41689;SDS011;27372;42.658;23.256;2024-02-28T13:01:34;15.27;;;6.00;;
41689;SDS011;27372;42.658;23.256;2024-02-28T13:04:02;23.95;;;7.20;;
41689;SDS011;27372;42.658;23.256;2024-02-28T13:06:28;21.00;;;7.22;;
41689;SDS011;27372;42.658;23.256;2024-02-28T13:08:53;14.43;;;7.40;;
41689;SDS011;27372;42.658;23.256;2024-02-28T13:11:19;15.48;;;7.45;;
41689;SDS011;27372;42.658;23.256;2024-02-28T13:13:46;14.80;;;7.43;;
41689;SDS011;27372;42.658;23.256;2024-02-28T13:16:12;22.27;;;8.27;;
41689;SDS011;27372;42.658;23.256;2024-02-28T13:18:38;15.35;;;7.95;;
41689;SDS011;27372;42.658;23.256;2024-02-28T13:21:03;16.95;;;8.60;;
41689;SDS011;27372;42.658;23.256;2024-02-28T13:23:29;15.55;;;7.82;;
41689;SDS011;27372;42.658;23.256;2024-02-28T13:25:56;12.77;;;7.85;;
41689;SDS011;27372;42.658;23.256;2024-02-28T13:28:22;21.75;;;10.20;;
41689;SDS011;27372;42.658;23.256;2024-02-28T13:30:54;24.55;;;10.32;;
41689;SDS011;27372;42.658;23.256;2024-02-28T13:33:22;26.92;;;11.35;;
41689;SDS011;27372;42.658;23.256;2024-02-28T13:35:47;28.77;;;10.13;;
41689;SDS011;27372;42.658;23.256;2024-02-28T13:38:12;20.65;;;8.93;;
41689;SDS011;27372;42.658;23.256;2024-02-28T13:40:38;18.30;;;8.77;;
41689;SDS011;27372;42.658;23.256;2024-02-28T13:43:04;21.83;;;8.93;;
41689;SDS011;27372;42.658;23.256;2024-02-28T13:45:29;19.75;;;9.15;;
41689;SDS011;27372;42.658;23.256;2024-02-28T13:47:54;23.20;;;9.20;;
41689;SDS011;27372;42.658;23.256;2024-02-28T13:50:20;13.48;;;8.23;;
41689;SDS011;27372;42.658;23.256;2024-02-28T13:52:46;21.45;;;9.20;;
41689;SDS011;27372;42.658;23.256;2024-02-28T13:55:11;16.67;;;8.15;;
41689;SDS011;27372;42.658;23.256;2024-02-28T13:57:36;23.58;;;8.75;;
41689;SDS011;27372;42.658;23.256;2024-02-28T14:00:02;40.80;;;10.00;;
41689;SDS011;27372;42.658;23.256;2024-02-28T14:04:57;17.27;;;8.20;;
41689;SDS011;27372;42.658;23.256;2024-02-28T14:07:22;18.75;;;8.13;;
41689;SDS011;27372;42.658;23.256;2024-02-28T14:09:47;22.60;;;8.25;;
41689;SDS011;27372;42.658;23.256;2024-02-28T14:12:13;19.25;;;8.85;;
41689;SDS011;27372;42.658;23.256;2024-02-28T14:14:38;24.35;;;8.57;;
41689;SDS011;27372;42.658;23.256;2024-02-28T14:17:07;18.67;;;7.78;;
41689;SDS011;27372;42.658;23.256;2024-02-28T14:19:32;15.15;;;8.30;;
41689;SDS011;27372;42.658;23.256;2024-02-28T14:22:00;26.17;;;9.07;;
41689;SDS011;27372;42.658;23.256;2024-02-28T14:24:25;18.63;;;8.25;;
41689;SDS011;27372;42.658;23.256;2024-02-28T14:26:51;18.63;;;8.15;;
41689;SDS011;27372;42.658;23.256;2024-02-28T14:29:16;27.05;;;11.68;;
41689;SDS011;27372;42.658;23.256;2024-02-28T14:31:42;31.85;;;11.27;;
41689;SDS011;27372;42.658;23.256;2024-02-28T14:34:07;19.27;;;10.40;;
41689;SDS011;27372;42.658;23.256;2024-02-28T14:36:32;16.65;;;9.73;;
41689;SDS011;27372;42.658;23.256;2024-02-28T14:38:58;18.77;;;10.15;;
41689;SDS011;27372;42.658;23.256;2024-02-28T14:41:23;19.77;;;9.88;;
41689;SDS011;27372;42.658;23.256;2024-02-28T14:43:49;20.98;;;9.63;;
41689;SDS011;27372;42.658;23.256;2024-02-28T14:46:14;20.83;;;9.82;;
41689;SDS011;27372;42.658;23.256;2024-02-28T14:48:43;17.80;;;9.13;;
41689;SDS011;27372;42.658;23.256;2024-02-28T14:51:10;21.45;;;9.65;;
41689;SDS011;27372;42.658;23.256;2024-02-28T14:53:35;17.52;;;9.73;;
41689;SDS011;27372;42.658;23.256;2024-02-28T14:56:01;22.45;;;9.63;;
41689;SDS011;27372;42.658;23.256;2024-02-28T14:58:26;26.88;;;10.50;;
41689;SDS011;27372;42.658;23.256;2024-02-28T15:00:51;29.80;;;10.18;;
41689;SDS011;27372;42.658;23.256;2024-02-28T15:03:17;38.38;;;10.90;;
41689;SDS011;27372;42.658;23.256;2024-02-28T15:05:42;32.35;;;10.32;;
41689;SDS011;27372;42.658;23.256;2024-02-28T15:08:09;23.40;;;9.35;;
41689;SDS011;27372;42.658;23.256;2024-02-28T15:10:35;29.52;;;9.63;;
41689;SDS011;27372;42.658;23.256;2024-02-28T15:13:01;27.23;;;8.10;;
41689;SDS011;27372;42.658;23.256;2024-02-28T15:15:26;19.40;;;7.22;;
41689;SDS011;27372;42.658;23.256;2024-02-28T15:17:52;12.23;;;6.70;;
41689;SDS011;27372;42.658;23.256;2024-02-28T15:20:18;13.95;;;6.75;;
41689;SDS011;27372;42.658;23.256;2024-02-28T15:22:43;13.85;;;6.97;;
41689;SDS011;27372;42.658;23.256;2024-02-28T15:25:10;16.15;;;7.97;;
41689;SDS011;27372;42.658;23.256;2024-02-28T15:27:36;21.63;;;8.40;;
41689;SDS011;27372;42.658;23.256;2024-02-28T15:30:01;22.35;;;8.15;;
41689;SDS011;27372;42.658;23.256;2024-02-28T15:32:29;19.15;;;7.18;;
41689;SDS011;27372;42.658;23.256;2024-02-28T15:34:55;19.58;;;7.80;;
41689;SDS011;27372;42.658;23.256;2024-02-28T15:37:20;24.88;;;9.65;;
41689;SDS011;27372;42.658;23.256;2024-02-28T15:39:46;22.83;;;10.10;;
41689;SDS011;27372;42.658;23.256;2024-02-28T15:42:13;32.03;;;10.43;;
41689;SDS011;27372;42.658;23.256;2024-02-28T15:44:39;17.38;;;9.95;;
41689;SDS011;27372;42.658;23.256;2024-02-28T15:47:05;15.32;;;7.63;;
41689;SDS011;27372;42.658;23.256;2024-02-28T15:49:31;22.15;;;8.68;;
41689;SDS011;27372;42.658;23.256;2024-02-28T15:51:56;10.20;;;5.95;;
41689;SDS011;27372;42.658;23.256;2024-02-28T15:54:21;18.05;;;6.63;;
41689;SDS011;27372;42.658;23.256;2024-02-28T15:56:47;20.42;;;7.10;;
41689;SDS011;27372;42.658;23.256;2024-02-28T15:59:12;20.40;;;9.25;;
41689;SDS011;27372;42.658;23.256;2024-02-28T16:01:38;11.07;;;5.75;;
41689;SDS011;27372;42.658;23.256;2024-02-28T16:04:04;16.65;;;6.50;;
41689;SDS011;27372;42.658;23.256;2024-02-28T16:06:30;10.88;;;5.40;;
41689;SDS011;27372;42.658;23.256;2024-02-28T16:08:55;13.90;;;7.63;;
41689;SDS011;27372;42.658;23.256;2024-02-28T16:11:20;14.98;;;7.00;;
41689;SDS011;27372;42.658;23.256;2024-02-28T16:13:46;15.40;;;5.60;;
41689;SDS011;27372;42.658;23.256;2024-02-28T16:16:13;14.45;;;5.90;;
41689;SDS011;27372;42.658;23.256;2024-02-28T16:18:39;10.43;;;5.35;;
41689;SDS011;27372;42.658;23.256;2024-02-28T16:21:04;10.77;;;5.38;;
41689;SDS011;27372;42.658;23.256;2024-02-28T16:23:30;10.38;;;5.28;;
41689;SDS011;27372;42.658;23.256;2024-02-28T16:25:55;8.80;;;4.28;;
41689;SDS011;27372;42.658;23.256;2024-02-28T16:28:23;13.85;;;5.03;;
41689;SDS011;27372;42.658;23.256;2024-02-28T16:30:50;11.27;;;4.65;;
41689;SDS011;27372;42.658;23.256;2024-02-28T16:33:16;10.57;;;4.03;;
41689;SDS011;27372;42.658;23.256;2024-02-28T16:35:42;13.77;;;4.18;;
41689;SDS011;27372;42.658;23.256;2024-02-28T16:38:58;11.98;;;4.60;;
41689;SDS011;27372;42.658;23.256;2024-02-28T18:13:34;27.90;;;10.40;;
41689;SDS011;27372;42.658;23.256;2024-02-28T18:30:18;26.88;;;11.23;;
41689;SDS011;27372;42.658;23.256;2024-02-28T18:36:27;33.70;;;11.85;;
41689;SDS011;27372;42.658;23.256;2024-02-28T18:38:52;18.17;;;10.02;;
41689;SDS011;27372;42.658;23.256;2024-02-28T18:41:18;24.02;;;10.05;;
41689;SDS011;27372;42.658;23.256;2024-02-28T18:44:03;19.77;;;9.48;;
41689;SDS011;27372;42.658;23.256;2024-02-28T18:46:31;16.70;;;9.30;;
41689;SDS011;27372;42.658;23.256;2024-02-28T18:48:57;20.40;;;8.65;;
41689;SDS011;27372;42.658;23.256;2024-02-28T18:51:22;19.92;;;9.02;;
41689;SDS011;27372;42.658;23.256;2024-02-28T18:53:49;20.23;;;8.68;;
41689;SDS011;27372;42.658;23.256;2024-02-28T18:56:15;17.70;;;9.10;;
41689;SDS011;27372;42.658;23.256;2024-02-28T18:59:00;16.35;;;9.95;;
41689;SDS011;27372;42.658;23.256;2024-02-28T19:01:26;23.55;;;11.18;;
41689;SDS011;27372;42.658;23.256;2024-02-28T19:03:57;26.35;;;10.48;;
41689;SDS011;27372;42.658;23.256;2024-02-28T19:06:24;22.30;;;10.82;;
41689;SDS011;27372;42.658;23.256;2024-02-28T19:08:51;17.98;;;9.25;;
41689;SDS011;27372;42.658;23.256;2024-02-28T19:11:20;20.17;;;10.13;;
41689;SDS011;27372;42.658;23.256;2024-02-28T19:31:30;22.10;;;8.48;;
41689;SDS011;27372;42.658;23.256;2024-02-28T19:34:58;22.98;;;10.07;;
41689;SDS011;27372;42.658;23.256;2024-02-28T21:30:42;17.08;;;8.35;;
